createdAt,value
2018-10-07T00:01:48.616Z,21.92
2018-10-07T00:04:15.264Z,21.91
2018-10-07T00:06:42.800Z,21.93
2018-10-07T00:09:09.447Z,21.95
2018-10-07T00:11:36.156Z,21.92
2018-10-07T00:14:02.796Z,21.81
2018-10-07T00:16:29.462Z,21.88
2018-10-07T00:18:56.104Z,21.87
2018-10-07T00:21:22.739Z,21.85
2018-10-07T00:23:49.478Z,21.86
2018-10-07T00:26:16.120Z,21.91
2018-10-07T00:28:42.851Z,21.86
2018-10-07T00:31:09.532Z,21.82
2018-10-07T00:33:36.227Z,21.83
2018-10-07T00:36:03.005Z,21.83
2018-10-07T00:38:29.644Z,21.82
2018-10-07T00:40:56.421Z,21.83
2018-10-07T00:43:23.078Z,21.85
2018-10-07T00:45:49.727Z,21.84
2018-10-07T00:48:17.561Z,21.81
2018-10-07T00:50:43.089Z,21.79
2018-10-07T00:53:09.751Z,21.81
2018-10-07T00:55:37.743Z,21.79
2018-10-07T00:58:03.098Z,21.79
2018-10-07T01:00:29.753Z,21.74
2018-10-07T01:02:56.406Z,21.78
2018-10-07T01:05:23.060Z,21.78
2018-10-07T01:07:49.710Z,21.78
2018-10-07T01:10:16.424Z,21.70
2018-10-07T01:12:43.117Z,21.75
2018-10-07T01:15:09.820Z,21.76
2018-10-07T01:17:36.509Z,21.70
2018-10-07T01:20:03.168Z,21.71
2018-10-07T01:22:29.811Z,21.69
2018-10-07T01:24:56.517Z,21.70
2018-10-07T01:27:23.229Z,21.70
2018-10-07T01:29:49.969Z,21.69
2018-10-07T01:32:16.641Z,21.71
2018-10-07T01:34:43.279Z,21.68
2018-10-07T01:37:09.964Z,21.66
2018-10-07T01:39:36.706Z,21.66
2018-10-07T01:42:03.362Z,21.69
2018-10-07T01:44:30.062Z,21.67
2018-10-07T01:46:56.792Z,21.66
2018-10-07T01:49:25.564Z,21.61
2018-10-07T01:51:52.197Z,21.60
2018-10-07T01:54:18.838Z,21.64
2018-10-07T01:56:45.544Z,21.61
2018-10-07T01:59:12.211Z,21.64
2018-10-07T02:01:38.916Z,21.59
2018-10-07T02:04:05.523Z,21.63
2018-10-07T02:06:32.183Z,21.59
2018-10-07T02:08:58.880Z,21.58
2018-10-07T02:11:25.560Z,21.57
2018-10-07T02:13:52.238Z,21.55
2018-10-07T02:16:18.853Z,21.56
2018-10-07T02:18:45.572Z,21.55
2018-10-07T02:21:12.210Z,21.53
2018-10-07T02:23:38.863Z,21.53
2018-10-07T02:26:05.519Z,21.54
2018-10-07T02:28:32.168Z,21.53
2018-10-07T02:30:58.867Z,21.48
2018-10-07T02:33:25.540Z,21.50
2018-10-07T02:35:53.591Z,21.49
2018-10-07T02:38:18.870Z,21.51
2018-10-07T02:40:47.261Z,21.49
2018-10-07T02:43:12.281Z,21.48
2018-10-07T02:45:38.915Z,21.51
2018-10-07T02:48:05.564Z,21.50
2018-10-07T02:50:32.826Z,21.48
2018-10-07T02:52:59.476Z,21.44
2018-10-07T02:55:26.311Z,21.41
2018-10-07T02:57:52.963Z,21.44
2018-10-07T03:00:19.659Z,21.45
2018-10-07T03:02:46.357Z,21.44
2018-10-07T03:05:13.075Z,21.41
2018-10-07T03:07:39.715Z,21.39
2018-10-07T03:10:06.488Z,21.40
2018-10-07T03:12:33.951Z,21.37
2018-10-07T03:15:00.626Z,21.40
2018-10-07T03:17:27.319Z,21.40
2018-10-07T03:19:53.962Z,21.36
2018-10-07T03:22:20.592Z,21.37
2018-10-07T03:24:47.243Z,21.37
2018-10-07T03:27:13.961Z,21.35
2018-10-07T03:29:40.611Z,21.37
2018-10-07T03:32:07.295Z,21.36
2018-10-07T03:34:33.989Z,21.34
2018-10-07T03:37:00.664Z,21.35
2018-10-07T03:39:27.318Z,21.33
2018-10-07T03:41:56.136Z,21.30
2018-10-07T03:44:20.677Z,21.32
2018-10-07T03:46:47.315Z,21.32
2018-10-07T03:49:13.953Z,21.30
2018-10-07T03:51:40.629Z,21.28
2018-10-07T03:54:07.332Z,21.25
2018-10-07T03:56:33.984Z,21.26
2018-10-07T03:59:00.625Z,21.27
2018-10-07T04:01:27.276Z,21.26
2018-10-07T04:03:55.219Z,21.21
2018-10-07T04:06:20.629Z,21.23
2018-10-07T04:08:47.272Z,21.22
2018-10-07T04:11:13.910Z,21.20
2018-10-07T04:13:40.567Z,21.20
2018-10-07T04:16:07.265Z,21.21
2018-10-07T04:18:33.902Z,21.22
2018-10-07T04:21:00.533Z,21.22
2018-10-07T04:23:27.183Z,21.20
2018-10-07T04:25:53.863Z,21.20
2018-10-07T04:28:20.491Z,21.16
2018-10-07T04:30:47.196Z,21.18
2018-10-07T04:33:13.846Z,21.18
2018-10-07T04:35:43.481Z,21.17
2018-10-07T04:38:10.124Z,21.18
2018-10-07T04:40:36.818Z,21.18
2018-10-07T04:43:03.456Z,21.18
2018-10-07T04:45:30.140Z,21.19
2018-10-07T04:47:56.892Z,21.19
2018-10-07T04:50:23.612Z,21.23
2018-10-07T04:52:50.301Z,21.25
2018-10-07T04:55:17.171Z,21.27
2018-10-07T04:57:43.857Z,21.30
2018-10-07T05:00:10.514Z,21.36
2018-10-07T05:02:37.596Z,21.36
2018-10-07T05:05:04.250Z,21.39
2018-10-07T05:07:30.962Z,21.42
2018-10-07T05:09:57.655Z,21.42
2018-10-07T05:12:24.415Z,21.42
2018-10-07T05:14:51.135Z,21.38
2018-10-07T05:17:17.913Z,21.43
2018-10-07T05:19:44.545Z,21.45
2018-10-07T05:22:11.250Z,21.84
2018-10-07T05:24:42.383Z,22.44
2018-10-07T05:27:08.010Z,22.66
2018-10-07T05:29:34.684Z,22.29
2018-10-07T05:32:01.333Z,21.86
2018-10-07T05:34:28.134Z,21.81
2018-10-07T05:36:54.783Z,21.87
2018-10-07T05:39:21.507Z,21.82
2018-10-07T05:41:48.400Z,21.84
2018-10-07T05:44:16.394Z,21.89
2018-10-07T05:46:41.875Z,21.93
2018-10-07T05:49:08.536Z,21.97
2018-10-07T05:51:35.173Z,22.01
2018-10-07T05:54:01.822Z,22.07
2018-10-07T05:56:28.460Z,22.10
2018-10-07T05:58:55.175Z,22.18
2018-10-07T06:01:23.165Z,22.26
2018-10-07T06:03:48.528Z,22.32
2018-10-07T06:06:15.168Z,22.36
2018-10-07T06:08:41.911Z,22.42
2018-10-07T06:11:08.747Z,22.45
2018-10-07T06:13:35.329Z,22.51
2018-10-07T06:16:02.059Z,22.56
2018-10-07T06:18:28.763Z,22.57
2018-10-07T06:20:58.597Z,22.60
2018-10-07T06:23:28.642Z,22.61
2018-10-07T06:25:56.659Z,22.63
2018-10-07T06:28:21.963Z,22.65
2018-10-07T06:30:49.997Z,22.70
2018-10-07T06:33:15.350Z,22.66
2018-10-07T06:35:42.055Z,22.71
2018-10-07T06:38:08.827Z,22.72
2018-10-07T06:40:35.474Z,22.77
2018-10-07T06:43:02.441Z,22.76
2018-10-07T06:45:29.268Z,22.79
2018-10-07T06:47:57.163Z,22.81
2018-10-07T06:50:22.527Z,22.83
2018-10-07T06:52:49.271Z,22.83
2018-10-07T06:55:15.871Z,22.85
2018-10-07T06:57:42.525Z,22.86
2018-10-07T07:00:09.289Z,22.88
2018-10-07T07:02:37.216Z,22.92
2018-10-07T07:05:02.739Z,22.91
2018-10-07T07:07:29.368Z,22.91
2018-10-07T07:09:56.023Z,22.93
2018-10-07T07:12:22.671Z,22.94
2018-10-07T07:14:49.382Z,22.92
2018-10-07T07:17:16.023Z,22.93
2018-10-07T07:19:42.751Z,22.93
2018-10-07T07:22:09.327Z,22.95
2018-10-07T07:24:35.978Z,22.94
2018-10-07T07:27:02.635Z,22.96
2018-10-07T07:29:29.284Z,22.96
2018-10-07T07:31:57.279Z,22.93
2018-10-07T07:34:22.631Z,22.95
2018-10-07T07:36:49.301Z,23.00
2018-10-07T07:39:15.942Z,22.95
2018-10-07T07:41:42.591Z,22.95
2018-10-07T07:44:09.248Z,22.95
2018-10-07T07:46:35.912Z,22.95
2018-10-07T07:49:02.601Z,23.02
2018-10-07T07:51:29.241Z,22.97
2018-10-07T07:53:55.913Z,22.96
2018-10-07T07:56:22.553Z,22.95
2018-10-07T07:58:49.196Z,22.96
2018-10-07T08:01:15.847Z,23.00
2018-10-07T08:03:42.485Z,22.97
2018-10-07T08:06:10.767Z,22.94
2018-10-07T08:08:35.808Z,22.95
2018-10-07T08:11:03.679Z,22.96
2018-10-07T08:13:29.126Z,22.96
2018-10-07T08:15:55.774Z,22.99
2018-10-07T08:18:22.412Z,22.98
2018-10-07T08:20:49.361Z,22.94
2018-10-07T08:23:16.053Z,22.95
2018-10-07T08:25:43.852Z,22.95
2018-10-07T08:28:09.288Z,22.93
2018-10-07T08:30:36.036Z,22.94
2018-10-07T08:33:02.694Z,22.93
2018-10-07T08:35:29.346Z,22.94
2018-10-07T08:37:55.990Z,22.93
2018-10-07T08:40:22.661Z,22.95
2018-10-07T08:42:49.327Z,22.88
2018-10-07T08:45:15.964Z,22.86
2018-10-07T08:47:42.589Z,22.87
2018-10-07T08:50:09.265Z,22.88
2018-10-07T08:52:35.894Z,22.91
2018-10-07T08:55:02.540Z,22.89
2018-10-07T08:57:29.204Z,22.91
2018-10-07T08:59:55.839Z,22.88
2018-10-07T09:02:22.474Z,22.84
2018-10-07T09:04:49.120Z,22.88
2018-10-07T09:07:15.763Z,22.88
2018-10-07T09:09:42.418Z,22.91
2018-10-07T09:12:09.050Z,22.90
2018-10-07T09:14:35.704Z,22.92
2018-10-07T09:17:02.338Z,22.88
2018-10-07T09:19:29.003Z,22.83
2018-10-07T09:21:55.649Z,22.86
2018-10-07T09:24:22.289Z,22.88
2018-10-07T09:26:49.070Z,22.86
2018-10-07T09:29:15.654Z,22.84
2018-10-07T09:31:42.372Z,22.86
2018-10-07T09:34:12.156Z,22.85
2018-10-07T09:36:38.842Z,22.88
2018-10-07T09:39:05.463Z,22.87
2018-10-07T09:41:32.100Z,22.85
2018-10-07T09:44:01.547Z,22.87
2018-10-07T09:46:28.205Z,22.88
2018-10-07T09:48:54.849Z,22.93
2018-10-07T09:51:21.529Z,22.92
2018-10-07T09:53:48.187Z,22.87
2018-10-07T09:56:14.863Z,22.90
2018-10-07T09:58:44.683Z,22.92
2018-10-07T10:01:11.387Z,22.94
2018-10-07T10:03:40.956Z,22.94
2018-10-07T10:06:07.622Z,22.94
2018-10-07T10:08:34.268Z,22.97
2018-10-07T10:11:01.052Z,22.93
2018-10-07T10:13:27.648Z,22.96
2018-10-07T10:15:54.292Z,22.97
2018-10-07T10:18:21.006Z,22.99
2018-10-07T10:20:47.697Z,23.01
2018-10-07T10:23:14.335Z,22.96
2018-10-07T10:25:41.085Z,23.00
2018-10-07T10:28:07.728Z,23.02
2018-10-07T10:30:34.444Z,23.02
2018-10-07T10:33:01.110Z,23.05
2018-10-07T10:35:27.756Z,23.03
2018-10-07T10:37:54.481Z,23.09
2018-10-07T10:40:21.128Z,23.06
2018-10-07T10:42:47.795Z,23.13
2018-10-07T10:45:14.507Z,23.15
2018-10-07T10:47:41.170Z,23.13
2018-10-07T10:50:07.822Z,23.12
2018-10-07T10:52:34.478Z,23.13
2018-10-07T10:55:01.332Z,23.15
2018-10-07T10:57:27.976Z,23.15
2018-10-07T10:59:55.985Z,23.21
2018-10-07T11:02:21.275Z,23.16
2018-10-07T11:04:47.964Z,23.23
2018-10-07T11:07:14.615Z,23.25
2018-10-07T11:09:41.334Z,23.29
2018-10-07T11:12:08.088Z,23.25
2018-10-07T11:14:34.700Z,23.29
2018-10-07T11:17:01.428Z,23.30
2018-10-07T11:19:28.232Z,23.29
2018-10-07T11:21:54.914Z,23.31
2018-10-07T11:24:21.581Z,23.29
2018-10-07T11:26:48.432Z,23.33
2018-10-07T11:29:15.044Z,23.34
2018-10-07T11:31:41.679Z,23.35
2018-10-07T11:34:08.338Z,23.37
2018-10-07T11:36:34.971Z,23.40
2018-10-07T11:39:01.667Z,23.40
2018-10-07T11:41:28.327Z,23.42
2018-10-07T11:43:55.024Z,23.44
2018-10-07T11:46:21.796Z,23.44
2018-10-07T11:48:48.450Z,23.48
2018-10-07T11:51:15.098Z,23.48
2018-10-07T11:53:41.798Z,23.48
2018-10-07T11:56:08.451Z,23.53
2018-10-07T11:58:35.127Z,23.49
2018-10-07T12:01:01.826Z,23.52
2018-10-07T12:03:28.471Z,23.54
2018-10-07T12:05:55.246Z,23.55
2018-10-07T12:08:21.941Z,23.58
2018-10-07T12:10:48.588Z,23.58
2018-10-07T12:13:15.259Z,23.60
2018-10-07T12:15:41.957Z,23.60
2018-10-07T12:18:08.632Z,23.64
2018-10-07T12:20:35.297Z,23.63
2018-10-07T12:23:03.291Z,23.71
2018-10-07T12:25:28.692Z,23.67
2018-10-07T12:27:55.328Z,23.60
2018-10-07T12:30:22.090Z,23.57
2018-10-07T12:32:48.783Z,23.47
2018-10-07T12:35:15.537Z,23.50
2018-10-07T12:37:42.244Z,23.52
2018-10-07T12:40:09.681Z,23.55
2018-10-07T12:42:36.462Z,23.57
2018-10-07T12:45:03.212Z,23.61
2018-10-07T12:47:29.824Z,23.62
2018-10-07T12:49:56.491Z,23.64
2018-10-07T12:52:23.130Z,23.65
2018-10-07T12:54:49.777Z,23.66
2018-10-07T12:57:16.415Z,23.66
2018-10-07T12:59:43.072Z,23.70
2018-10-07T13:02:09.729Z,23.70
2018-10-07T13:04:36.374Z,23.70
2018-10-07T13:07:03.025Z,23.71
2018-10-07T13:09:29.716Z,23.73
2018-10-07T13:11:56.331Z,23.71
2018-10-07T13:14:22.975Z,23.71
2018-10-07T13:16:49.674Z,23.73
2018-10-07T13:19:16.349Z,23.74
2018-10-07T13:21:43.035Z,23.73
2018-10-07T13:24:09.666Z,23.74
2018-10-07T13:26:36.435Z,23.73
2018-10-07T13:29:04.484Z,23.75
2018-10-07T13:31:29.787Z,23.77
2018-10-07T13:33:57.793Z,23.79
2018-10-07T13:36:23.329Z,23.79
2018-10-07T13:38:50.064Z,23.79
2018-10-07T13:41:16.764Z,23.79
2018-10-07T13:43:43.386Z,23.81
2018-10-07T13:46:10.075Z,23.83
2018-10-07T13:48:36.812Z,23.84
2018-10-07T13:51:03.375Z,23.85
2018-10-07T13:53:30.183Z,23.83
2018-10-07T13:55:56.723Z,23.85
2018-10-07T13:58:23.407Z,23.82
2018-10-07T14:00:50.071Z,23.86
2018-10-07T14:03:16.869Z,23.86
2018-10-07T14:05:43.543Z,23.91
2018-10-07T14:08:10.171Z,23.92
2018-10-07T14:10:36.827Z,23.94
2018-10-07T14:13:04.688Z,23.94
2018-10-07T14:15:30.232Z,23.85
2018-10-07T14:17:56.945Z,23.88
2018-10-07T14:20:23.647Z,23.93
2018-10-07T14:22:50.291Z,23.95
2018-10-07T14:25:16.962Z,23.92
2018-10-07T14:27:45.714Z,23.93
2018-10-07T14:30:12.578Z,23.96
2018-10-07T14:32:39.291Z,23.96
2018-10-07T14:35:05.963Z,23.92
2018-10-07T14:37:32.577Z,23.95
2018-10-07T14:39:59.221Z,23.99
2018-10-07T14:42:25.875Z,23.92
2018-10-07T14:44:52.640Z,24.03
2018-10-07T14:47:19.370Z,23.97
2018-10-07T14:49:46.095Z,23.95
2018-10-07T14:52:12.735Z,23.97
2018-10-07T14:54:39.389Z,23.92
2018-10-07T14:57:06.036Z,23.92
2018-10-07T14:59:32.782Z,23.83
2018-10-07T15:02:01.683Z,23.76
2018-10-07T15:04:26.073Z,23.80
2018-10-07T15:06:52.876Z,23.86
2018-10-07T15:09:19.575Z,23.83
2018-10-07T15:11:46.308Z,23.79
2018-10-07T15:14:12.948Z,23.78
2018-10-07T15:16:39.649Z,23.80
2018-10-07T15:19:06.292Z,23.72
2018-10-07T15:21:33.951Z,23.69
2018-10-07T15:24:00.728Z,23.69
2018-10-07T15:26:27.370Z,23.70
2018-10-07T15:28:54.071Z,23.68
2018-10-07T15:31:22.264Z,23.60
2018-10-07T15:33:49.628Z,23.62
2018-10-07T15:36:17.267Z,23.63
2018-10-07T15:38:43.904Z,23.64
2018-10-07T15:41:12.484Z,23.56
2018-10-07T15:43:37.579Z,23.54
2018-10-07T15:46:04.281Z,23.55
2018-10-07T15:48:30.945Z,23.53
2018-10-07T15:50:57.545Z,23.52
2018-10-07T15:53:24.282Z,23.50
2018-10-07T15:55:51.039Z,23.49
2018-10-07T15:58:17.650Z,23.50
2018-10-07T16:00:44.356Z,23.48
2018-10-07T16:03:11.063Z,23.47
2018-10-07T16:05:37.701Z,23.42
2018-10-07T16:08:04.349Z,23.44
2018-10-07T16:10:31.067Z,23.45
2018-10-07T16:12:57.713Z,23.43
2018-10-07T16:15:27.320Z,23.40
2018-10-07T16:17:54.881Z,23.36
2018-10-07T16:20:21.569Z,23.35
2018-10-07T16:22:48.325Z,23.33
2018-10-07T16:25:14.996Z,23.32
2018-10-07T16:27:41.711Z,23.31
2018-10-07T16:30:08.357Z,23.30
2018-10-07T16:32:36.394Z,23.28
2018-10-07T16:35:01.717Z,23.27
2018-10-07T16:37:28.367Z,23.24
2018-10-07T16:39:55.097Z,23.23
2018-10-07T16:42:21.739Z,23.23
2018-10-07T16:44:48.383Z,23.19
2018-10-07T16:47:15.238Z,23.19
2018-10-07T16:49:41.851Z,23.16
2018-10-07T16:52:08.494Z,23.15
2018-10-07T16:54:35.130Z,23.13
2018-10-07T16:57:01.829Z,23.15
2018-10-07T16:59:28.556Z,23.11
2018-10-07T17:01:55.331Z,23.10
2018-10-07T17:04:22.025Z,23.09
2018-10-07T17:06:48.970Z,23.08
2018-10-07T17:09:15.628Z,23.05
2018-10-07T17:11:43.669Z,23.07
2018-10-07T17:14:08.903Z,23.02
2018-10-07T17:16:35.590Z,23.02
2018-10-07T17:19:02.202Z,23.02
2018-10-07T17:21:30.016Z,23.00
2018-10-07T17:23:55.764Z,23.01
2018-10-07T17:26:22.466Z,23.01
2018-10-07T17:28:52.444Z,22.97
2018-10-07T17:31:19.081Z,22.98
2018-10-07T17:33:45.741Z,22.99
2018-10-07T17:36:12.436Z,22.96
2018-10-07T17:38:39.160Z,22.94
2018-10-07T17:41:05.861Z,22.93
2018-10-07T17:43:32.536Z,22.92
2018-10-07T17:45:59.208Z,22.90
2018-10-07T17:48:26.109Z,22.91
2018-10-07T17:50:52.948Z,22.90
2018-10-07T17:53:19.665Z,22.87
2018-10-07T17:55:46.315Z,22.88
2018-10-07T17:58:12.994Z,22.86
2018-10-07T18:00:39.619Z,22.85
2018-10-07T18:03:09.151Z,22.85
2018-10-07T18:05:37.145Z,22.85
2018-10-07T18:08:05.294Z,22.82
2018-10-07T18:10:32.032Z,22.82
2018-10-07T18:13:01.073Z,22.81
2018-10-07T18:15:25.602Z,22.79
2018-10-07T18:17:52.514Z,22.80
2018-10-07T18:20:19.223Z,22.78
2018-10-07T18:22:45.872Z,22.77
2018-10-07T18:25:12.507Z,22.76
2018-10-07T18:27:39.408Z,22.77
2018-10-07T18:30:06.161Z,22.77
2018-10-07T18:32:32.838Z,22.75
2018-10-07T18:35:02.397Z,22.76
2018-10-07T18:37:29.148Z,22.76
2018-10-07T18:39:55.881Z,22.73
2018-10-07T18:42:22.514Z,22.72
2018-10-07T18:44:49.159Z,22.70
2018-10-07T18:47:15.995Z,22.72
2018-10-07T18:49:42.642Z,22.68
2018-10-07T18:52:09.296Z,22.68
2018-10-07T18:54:36.077Z,22.68
2018-10-07T18:57:02.754Z,22.68
2018-10-07T18:59:29.462Z,22.65
2018-10-07T19:01:56.112Z,22.67
2018-10-07T19:04:22.872Z,22.64
2018-10-07T19:06:49.576Z,22.64
2018-10-07T19:09:16.312Z,22.62
2018-10-07T19:11:44.311Z,22.62
2018-10-07T19:14:14.910Z,22.59
2018-10-07T19:16:39.112Z,22.60
2018-10-07T19:19:05.714Z,22.58
2018-10-07T19:21:32.417Z,22.62
2018-10-07T19:23:59.145Z,22.58
2018-10-07T19:26:25.817Z,22.57
2018-10-07T19:28:52.658Z,22.54
2018-10-07T19:31:22.316Z,22.56
2018-10-07T19:33:48.958Z,22.55
2018-10-07T19:36:15.643Z,22.54
2018-10-07T19:38:43.302Z,22.53
2018-10-07T19:41:11.440Z,22.51
2018-10-07T19:43:36.053Z,22.54
2018-10-07T19:46:05.826Z,22.52
2018-10-07T19:48:32.488Z,22.53
2018-10-07T19:51:02.244Z,22.46
2018-10-07T19:53:30.178Z,22.47
2018-10-07T19:55:55.546Z,22.50
2018-10-07T19:58:22.253Z,22.54
2018-10-07T20:00:48.954Z,22.49
2018-10-07T20:03:15.694Z,22.47
2018-10-07T20:05:42.426Z,22.49
2018-10-07T20:08:09.072Z,22.45
2018-10-07T20:10:37.094Z,22.46
2018-10-07T20:13:02.470Z,22.44
2018-10-07T20:15:29.214Z,22.43
2018-10-07T20:17:55.822Z,22.45
2018-10-07T20:20:23.495Z,22.41
2018-10-07T20:22:49.233Z,22.42
2018-10-07T20:25:15.965Z,22.42
2018-10-07T20:27:42.716Z,22.43
2018-10-07T20:30:09.342Z,22.42
2018-10-07T20:32:36.745Z,22.41
2018-10-07T20:35:03.350Z,22.39
2018-10-07T20:37:30.076Z,22.41
2018-10-07T20:39:56.717Z,22.41
2018-10-07T20:42:23.427Z,22.38
2018-10-07T20:44:50.106Z,22.45
2018-10-07T20:47:16.803Z,22.44
2018-10-07T20:49:43.468Z,22.37
2018-10-07T20:52:10.201Z,22.34
2018-10-07T20:54:36.837Z,22.32
2018-10-07T20:57:03.482Z,22.37
2018-10-07T20:59:32.959Z,22.35
2018-10-07T21:01:59.617Z,22.33
2018-10-07T21:04:26.269Z,22.35
2018-10-07T21:06:52.925Z,22.32
2018-10-07T21:09:19.578Z,22.32
2018-10-07T21:11:46.314Z,22.37
2018-10-07T21:14:12.989Z,22.35
2018-10-07T21:16:39.661Z,22.30
2018-10-07T21:19:06.300Z,22.29
2018-10-07T21:21:32.941Z,22.35
2018-10-07T21:23:59.911Z,22.25
2018-10-07T21:26:26.584Z,22.27
2018-10-07T21:28:53.257Z,22.29
2018-10-07T21:31:19.962Z,22.25
2018-10-07T21:33:46.606Z,22.21
2018-10-07T21:36:13.264Z,22.24
2018-10-07T21:38:41.138Z,22.33
2018-10-07T21:41:06.586Z,22.18
2018-10-07T21:43:33.241Z,22.26
2018-10-07T21:45:59.876Z,22.26
2018-10-07T21:48:26.534Z,22.23
2018-10-07T21:50:53.259Z,22.23
2018-10-07T21:53:19.969Z,22.16
2018-10-07T21:55:46.618Z,22.24
2018-10-07T21:58:13.352Z,22.32
2018-10-07T22:00:39.985Z,22.22
2018-10-07T22:03:06.640Z,22.12
2018-10-07T22:05:33.285Z,22.16
2018-10-07T22:08:02.022Z,22.21
2018-10-07T22:10:28.664Z,22.22
2018-10-07T22:12:55.331Z,22.23
2018-10-07T22:15:21.978Z,22.16
2018-10-07T22:17:48.635Z,22.16
2018-10-07T22:20:15.315Z,22.20
2018-10-07T22:22:41.975Z,22.12
2018-10-07T22:25:10.488Z,22.17
2018-10-07T22:27:36.311Z,22.18
2018-10-07T22:30:02.953Z,22.12
2018-10-07T22:32:30.971Z,22.09
2018-10-07T22:34:56.289Z,22.11
2018-10-07T22:37:23.017Z,22.14
2018-10-07T22:39:49.664Z,22.07
2018-10-07T22:42:16.409Z,22.10
2018-10-07T22:44:43.065Z,22.08
2018-10-07T22:47:09.719Z,22.09
2018-10-07T22:49:36.534Z,22.13
2018-10-07T22:52:03.098Z,22.12
2018-10-07T22:54:29.754Z,22.06
2018-10-07T22:56:56.474Z,22.12
2018-10-07T22:59:23.208Z,22.03
2018-10-07T23:01:49.865Z,22.02
2018-10-07T23:04:16.510Z,22.10
2018-10-07T23:06:43.150Z,22.06
2018-10-07T23:09:09.855Z,22.06
2018-10-07T23:11:36.504Z,22.03
2018-10-07T23:14:03.181Z,22.05
2018-10-07T23:16:29.817Z,22.00
2018-10-07T23:18:56.556Z,22.00
2018-10-07T23:21:23.252Z,21.96
2018-10-07T23:23:49.904Z,22.02
2018-10-07T23:26:16.630Z,21.95
2018-10-07T23:28:43.275Z,21.98
2018-10-07T23:31:10.009Z,21.95
2018-10-07T23:33:36.647Z,21.92
2018-10-07T23:36:04.612Z,21.85
2018-10-07T23:38:29.940Z,21.96
2018-10-07T23:40:59.548Z,21.93
2018-10-07T23:43:26.207Z,21.92
2018-10-07T23:45:55.739Z,21.98
2018-10-07T23:48:22.478Z,21.93
2018-10-07T23:50:50.520Z,21.93
2018-10-07T23:53:17.141Z,21.91
2018-10-07T23:55:43.864Z,21.88
2018-10-07T23:58:10.514Z,21.84
